Tiempo atmosférico en la estación meteorológica de Berga, Barcelona (690 m.)



Fecha
DESCASC
Temp. máxima en grados centígrados (hora)
DESCASC
Temp. mínima en grados centígrados (hora)
DESCASC
Temp. media en grados centígrados
DESCASC
Racha de viento máxima en m/sg (hora)
DESCASC
Velocidad máxima media en intervalos de 10 minutos(hora)
DESCASC
Precipitaciones diarias en mm
DESCASC
Precipitaciones de 00:00 a 06:00 en mm
DESCASC
Precipitaciones de 06:00 a 12:00 en mm
DESCASC
Precipitaciones de 12:00 a 18:00 en mm
DESCASC
Precipitaciones de 18:00 a 24:00 en mm
DESCASC
31-03-2020 11.2 (15:20) 4.4 (00:00) 7.8 7.22 (14:50) 4.17 (14:30) 8.2 0.4 0.8 0.2 6.8
30-03-2020 8.8 (00:50) 3.9 (12:10) 6.4 5.28 (14:20) 3.61 (14:30) 3 0 2.4 0.4 0.2
29-03-2020 17.4 (14:20) 3.8 (00:00) 10.6 5.56 (14:40) 3.33 (16:20) 2.2 0 0 0.4 1.8
28-03-2020 15 (13:10) 4.9 (00:00) 10 6.67 (13:30) 3.89 (16:00) 0 0 0 0 0
27-03-2020 10.6 (14:50) -1 (-00:0) 4.8 4.72 (05:00) 2.78 (04:50) 0 0 0 0 0
26-03-2020 8.3 (13:40) -0.6 (-00:0) 3.9 8.89 (16:30) 4.72 (16:30) 0 0 0 0 0
25-03-2020 9.5 (13:40) 1 (00:00) 5.3 7.22 (08:10) 4.72 (14:30) 0.6 0.2 0.2 0.2 0
24-03-2020 12.5 (11:10) 4.8 (00:00) 8.7 7.22 (12:40) 3.89 (11:50) 0 0 0 0 0
23-03-2020 11.4 (16:50) 7.9 (00:00) 9.6 6.94 (18:10) 3.89 (21:10) 0.8 0 0.2 0.6 0
22-03-2020 15.4 (16:20) 7.8 (06:30) 11.6 5.83 (16:40) 3.33 (16:40) 0 0 0 0 0
21-03-2020 15.5 (15:20) 3.4 (00:00) 9.5 6.67 (14:20) 3.89 (14:20) 0 0 0 0 0
20-03-2020 16.3 (15:20) 4 (00:00) 10.1 8.33 (15:20) 4.17 (17:50) 0 0 0 0 0
19-03-2020 18.7 (13:50) 5.2 (00:00) 12 8.61 (14:10) 4.72 (16:10) 0 0 0 0 0
18-03-2020 15.5 (16:20) 6.9 (00:00) 11.2 4.17 (08:00) 2.5 (07:20) 0 0 0 0 0
17-03-2020 14 (13:50) 8.2 (00:00) 11.1 9.17 (04:40) 4.44 (07:00) 0.2 0.2 0 0 0
16-03-2020 9.8 (23:59) 8.2 (00:00) 9 11.11 (19:50) 5.56 (19:50) 18.6 3.8 0.4 11.6 2.8
15-03-2020 15.8 (15:30) 6.1 (00:00) 11 7.22 (15:40) 4.44 (16:40) 0 0 0 0 0
14-03-2020 14 (15:00) 8.2 (00:00) 11.1 4.44 (15:30) 2.5 (13:20) 0 0 0 0 0
13-03-2020 18.2 (13:40) 9.6 (07:00) 13.9 8.61 (15:30) 5.83 (15:30) 0 0 0 0 0
12-03-2020 23.7 (14:00) 7.8 (00:00) 15.8 6.67 (14:10) 4.17 (13:40) 0 0 0 0 0
11-03-2020 21.6 (16:00) 5.5 (00:00) 13.6 6.11 (14:30) 3.33 (12:40) 0 0 0 0 0
10-03-2020 15.2 (14:50) 4.4 (00:00) 9.8 5.56 (11:40) 3.61 (15:30) 0 0 0 0 0
09-03-2020 16.4 (14:10) 3.9 (00:00) 10.1 10.83 (16:30) 5 (16:20) 0 0 0 0 0
08-03-2020 15.6 (14:30) 2.1 (00:00) 8.9 6.11 (16:10) 4.17 (16:40) 0 0 0 0 0
07-03-2020 14.5 (15:50) 4.6 (00:00) 9.5 24.17 (02:10) 10.83 (02:10) 0 0 0 0 0
06-03-2020 11.4 (16:00) -0.4 (00:00) 5.5 11.67 (17:20) 5 (17:20) 0 0 0 0 0
05-03-2020 16.9 (13:00) 5.5 (00:00) 11.2 16.39 (15:30) 10 (13:00) 0 0 0 0 0
04-03-2020 15.7 (16:40) 2.4 (00:00) 9 10 (00:10) 5.56 (00:10) 0 0 0 0 0
03-03-2020 11.6 (15:00) -0.5 (-00:0) 5.6 16.94 (14:20) 9.17 (15:20) 0 0 0 0 0

Gráficas

Temp. máximas Temp. mínimas Temp. medias Precipitaciones Rachas de viento máximas Velocidades máximas media en intervalos de 10 minutos

Datos horarios

Fecha y hora oficial Temperatura (ºC) Velocidad del viento (km/h) Dirección del viento Racha (km/h) Dirección de racha Precipitación (mm) Presión (hPa) Tendencia (hPa) Humedad (%)
2020-04-01 23:00:00 6 10 Este 20 Este 0 -- -- 89
2020-04-01 22:00:00 5.8 9 Nordeste 16 Este 0.6 -- -- 89
2020-04-01 21:00:00 6.2 5 Nordeste 18 Nordeste 0.2 -- -- 88
2020-04-01 20:00:00 6.6 6 Este 33 Este 0 -- -- 87
2020-04-01 19:00:00 7.2 9 Este 24 Nordeste 0 -- -- 86
2020-04-01 18:00:00 7.6 5 Este 22 Este 0.6 -- -- 89
2020-04-01 17:00:00 8 9 Este 23 Nordeste 0 -- -- 83
2020-04-01 16:00:00 8 10 Este 25 Nordeste 0 -- -- 86
2020-04-01 15:00:00 8.2 14 Este 28 Este 0 -- -- 79
2020-04-01 14:00:00 7.6 12 Nordeste 26 Este 0 -- -- 81
2020-04-01 13:00:00 6.8 12 Nordeste 28 Nordeste 2.8 -- -- 89
2020-04-01 12:00:00 7.3 13 Nordeste 27 Este 0 -- -- 80
2020-04-01 11:00:00 6.6 14 Nordeste 31 Nordeste 0.4 -- -- 84
2020-04-01 10:00:00 7 15 Nordeste 27 Nordeste 0 -- -- 81
2020-04-01 09:00:00 7.3 9 Nordeste 21 Nordeste 1.4 -- -- 88
2020-04-01 08:00:00 7.6 13 Nordeste 23 Este 0.6 -- -- 86
2020-04-01 07:00:00 8.2 12 Nordeste 20 Nordeste 0 -- -- 82
2020-04-01 06:00:00 7.9 7 Nordeste 22 Nordeste 0 -- -- 84
2020-04-01 05:00:00 7.3 6 Nordeste 15 Nordeste 0.4 -- -- 89
2020-04-01 04:00:00 7.3 7 Nordeste 17 Este 0 -- -- 86
2020-04-01 03:00:00 7.3 9 Nordeste 24 Nordeste 0 -- -- 85
2020-04-01 02:00:00 7.3 9 Nordeste 22 Nordeste 0 -- -- 85
2020-04-01 01:00:00 7.5 11 Nordeste 21 Este 0 -- -- 81
2020-04-01 00:00:00 7.3 9 Nordeste 21 Nordeste 0 -- -- 84
2020-03-31 23:00:00 7.4 9 Nordeste 18 Nordeste 0.2 -- -- 84
2020-03-31 22:00:00 7.5 6 Nordeste 17 Este 1.2 -- -- 85
2020-03-31 21:00:00 7.9 3 Nordeste 7 Este 2.2 -- -- 90
2020-03-31 20:00:00 8.5 2 Nordeste 8 Nordeste 2.2 -- -- 90
2020-03-31 19:00:00 9 2 Oeste 8 Sudoeste 1 -- -- 90
2020-03-31 18:00:00 9.7 3 Sur 10 Sur 0 -- -- 82
2020-03-31 17:00:00 10.1 3 Este 13 Nordeste 0.2 -- -- 79
2020-03-31 16:00:00 10.7 9 Nordeste 18 Este 0 -- -- 72
2020-03-31 15:00:00 10.9 12 Nordeste 26 Nordeste 0 -- -- 75
2020-03-31 14:00:00 10.1 6 Este 15 Este 0 -- -- 78
2020-03-31 13:00:00 9.9 3 Este 8 Nordeste 0 -- -- 79
2020-03-31 12:00:00 9.9 3 Oeste 17 Sudeste 0 -- -- 80
2020-03-31 11:00:00 8.8 5 Este 21 Este 0 -- -- 83
2020-03-31 10:00:00 7 8 Este 16 Nordeste 0 -- -- 87
2020-03-31 09:00:00 5.8 5 Nordeste 15 Este 0 -- -- 94
2020-03-31 08:00:00 5.6 6 Este 14 Este 0.2 -- -- 94
2020-03-31 07:00:00 5.6 2 Este 10 Sudeste 0.6 -- -- 93
2020-03-31 06:00:00 6 5 Este 14 Este 0 -- -- 90
2020-03-31 05:00:00 5.8 8 Este 15 Nordeste 0 -- -- 90
2020-03-31 04:00:00 5.8 6 Este 15 Este 0.2 -- -- 91
2020-03-31 03:00:00 5.3 6 Este 13 Este 0.2 -- -- 93
2020-03-31 02:00:00 4.6 3 Sudoeste 9 Sudoeste 0 -- -- 94
2020-03-31 01:00:00 4.9 4 Oeste 15 Sudeste 0 -- -- 91
2020-03-31 00:00:00 4.4 4 Nordeste 9 Nordeste 0 -- -- 95
2020-03-30 23:00:00 4.1 0 Calma 9 Oeste 0 -- -- 95
2020-03-30 22:00:00 4.2 4 Sudoeste 8 Sudoeste 0 -- -- 94
2020-03-30 21:00:00 4.2 0 Calma 6 Sudoeste 0 -- -- 93
2020-03-30 20:00:00 4.4 0 Calma 6 Sudoeste 0 -- -- 92
2020-03-30 19:00:00 4.6 4 Sudoeste 8 Oeste 0.2 -- -- 91
2020-03-30 18:00:00 4.7 5 Sur 9 Sudoeste 0.2 -- -- 89
2020-03-30 17:00:00 4.8 3 Este 10 Este 0.2 -- -- 89
2020-03-30 16:00:00 4.7 4 Sudeste 13 Sur 0 -- -- 86
2020-03-30 15:00:00 5.2 5 Sur 19 Sudoeste 0 -- -- 85
2020-03-30 14:00:00 5.7 4 Sudeste 12 Sur 0 -- -- 91
2020-03-30 13:00:00 4.4 5 Sur 12 Sur 0 -- -- 94
2020-03-30 12:00:00 4 5 Sudeste 13 Sur 0.2 -- -- 94
2020-03-30 11:00:00 4.7 4 Sur 13 Sudeste 1 -- -- 95
2020-03-30 10:00:00 5.3 5 Sudeste 13 Sudeste 1.2 -- -- 93
2020-03-30 09:00:00 5.6 3 Sur 8 Sudeste 0 -- -- 91
2020-03-30 08:00:00 5.9 2 Nordeste 9 Sudeste 0 -- -- 90
2020-03-30 07:00:00 6.3 3 Sudeste 10 Sudeste 0 -- -- 91
2020-03-30 06:00:00 7 4 Sudoeste 10 Sur 0 -- -- 91
2020-03-30 05:00:00 7.9 3 Sudoeste 6 Nordeste 0 -- -- 91
2020-03-30 04:00:00 8.3 3 Sur 8 Oeste 0 -- -- 88
2020-03-30 03:00:00 8.3 6 Nordeste 14 Este 0 -- -- 83
2020-03-30 02:00:00 8.8 8 Este 17 Este 0 -- -- 83
2020-03-30 01:00:00 8.8 7 Este 17 Este 0 -- -- 89
2020-03-30 00:00:00 8.6 6 Este 10 Este 0.2 -- -- 91
2020-03-29 23:00:00 8.9 6 Este 9 Este 0 -- -- 89
2020-03-29 22:00:00 9.5 3 Este 9 Este 0 -- -- 88
2020-03-29 21:00:00 10.2 3 Este 5 Este 0.4 -- -- 86
2020-03-29 20:00:00 10.5 4 Este 11 Sur 0 -- -- 87
2020-03-29 19:00:00 11.5 4 Sudoeste 13 Oeste 1.2 -- -- 77
2020-03-29 18:00:00 13.3 8 Sudoeste 14 Oeste 0.4 -- -- 67
2020-03-29 17:00:00 16.8 6 Oeste 17 Oeste 0 -- -- 46
2020-03-29 16:00:00 16.1 8 Sudoeste 18 Oeste 0 -- -- 45
2020-03-29 15:00:00 16.6 8 Oeste 20 Sudoeste 0 -- -- 44
2020-03-29 14:00:00 16.8 8 Oeste 19 Sudoeste 0 -- -- 46
2020-03-29 13:00:00 15.2 9 Sudoeste 17 Sudoeste 0 -- -- 52
2020-03-29 12:00:00 13.7 8 Sudoeste 15 Sudoeste 0 -- -- 58
2020-03-29 11:00:00 12.8 8 Sudoeste 10 Sudoeste 0 -- -- 58
2020-03-29 10:00:00 8.9 3 Este 12 Este 0 -- -- 64
2020-03-29 09:00:00 5.3 6 Este 13 Este 0 -- -- 76
2020-03-29 08:00:00 4.4 6 Este 14 Este 0 -- -- 74
2020-03-29 07:00:00 4.1 7 Este 14 Este 0 -- -- 77
2020-03-29 06:00:00 4.1 7 Este 13 Este 0 -- -- 79
2020-03-29 05:00:00 4 6 Nordeste 10 Este 0 -- -- 82
2020-03-29 03:00:00 4.6 6 Este 13 Este 0 -- -- 84
2020-03-29 01:00:00 5 6 Este 13 Este 0 -- -- 84
2020-03-29 00:00:00 5.9 7 Este 14 Este 0 -- -- 80
2020-03-28 23:00:00 6.9 9 Este 17 Este 0 -- -- 77
2020-03-28 22:00:00 7.7 6 Este 13 Este 0 -- -- 76
2020-03-28 21:00:00 8.5 7 Este 12 Este 0 -- -- 76
2020-03-28 20:00:00 10.1 2 Este 6 Este 0 -- -- 70
2020-03-28 19:00:00 11.6 3 Este 6 Este 0 -- -- 65
2020-03-28 18:00:00 13 4 Este 14 Sur 0 -- -- 59
2020-03-28 17:00:00 13.6 10 Sudoeste 21 Sudoeste 0 -- -- 57
2020-03-28 16:00:00 13.2 14 Sudoeste 21 Sudoeste 0 -- -- 56
2020-03-28 15:00:00 13.7 8 Sudoeste 20 Sur 0 -- -- 52
2020-03-28 14:00:00 14.8 8 Sur 24 Sudoeste 0 -- -- 48
2020-03-28 13:00:00 14.5 11 Oeste 22 Sudoeste 0 -- -- 51
2020-03-28 12:00:00 12.9 6 Sudoeste 16 Sudoeste 0 -- -- 52
2020-03-28 11:00:00 12 7 Oeste 12 Oeste 0 -- -- 54
2020-03-28 10:00:00 10.9 6 Sudoeste 10 Sudoeste 0 -- -- 56
2020-03-28 09:00:00 8.6 3 Este 11 Este 0 -- -- 64
2020-03-28 08:00:00 5.9 6 Este 14 Este 0 -- -- 76
2020-03-28 07:00:00 4.9 7 Este 12 Este 0 -- -- 79
2020-03-28 06:00:00 5.2 8 Este 12 Nordeste 0 -- -- 77
2020-03-28 05:00:00 5.4 6 Este 10 Este 0 -- -- 76
2020-03-28 04:00:00 5.6 5 Este 8 Nordeste 0 -- -- 76
2020-03-28 03:00:00 5.9 3 Este 7 Este 0 -- -- 74
2020-03-28 02:00:00 6.1 4 Este 11 Nordeste 0 -- -- 72
2020-03-28 01:00:00 6.5 6 Nordeste 16 Este 0 -- -- 70
2020-03-28 00:00:00 6.7 9 Nordeste 15 Este 0 -- -- 66
2020-03-27 23:00:00 6.1 3 Este 6 Este 0 -- -- 73
2020-03-27 22:00:00 6.7 4 Sudeste 7 Sudeste 0 -- -- 69
2020-03-27 21:00:00 7 3 Sudoeste 6 Oeste 0 -- -- 64
2020-03-27 20:00:00 7.6 3 Nordeste 9 Este 0 -- -- 60
2020-03-27 19:00:00 8.6 5 Este 15 Este 0 -- -- 53
2020-03-27 18:00:00 9.4 3 Sudoeste 13 Sudoeste 0 -- -- 45
2020-03-27 17:00:00 9.8 7 Sudoeste 12 Sudoeste 0 -- -- 44
2020-03-27 16:00:00 10 8 Sudoeste 12 Sudoeste 0 -- -- 44
2020-03-27 15:00:00 10.3 7 Sudoeste 15 Sudoeste 0 -- -- 42
2020-03-27 14:00:00 9.6 7 Sudoeste 15 Sudoeste 0 -- -- 49
2020-03-27 13:00:00 8.3 7 Oeste 13 Sudoeste 0 -- -- 54
2020-03-27 12:00:00 7.2 6 Sudoeste 10 Sudoeste 0 -- -- 61
2020-03-27 11:00:00 6.4 5 Oeste 9 Oeste 0 -- -- 62
2020-03-27 10:00:00 4.6 4 Noroeste 9 Sudoeste 0 -- -- 67
2020-03-27 09:00:00 3.3 4 Este 9 Este 0 -- -- 68
2020-03-27 08:00:00 0.6 6 Este 11 Este 0 -- -- 77
2020-03-27 07:00:00 -0.7 7 Este 15 Este 0 -- -- 82
2020-03-27 06:00:00 -1 8 Este 15 Este 0 -- -- 84
2020-03-27 05:00:00 -0.8 9 Este 17 Este 0 -- -- 84
2020-03-27 04:00:00 -0.4 6 Nordeste 15 Nordeste 0 -- -- 83
2020-03-27 03:00:00 -0.9 8 Este 15 Este 0 -- -- 89
2020-03-27 02:00:00 -1 8 Este 12 Este 0 -- -- 90
2020-03-27 01:00:00 -0.4 8 Este 12 Este 0 -- -- 89
2020-03-27 00:00:00 0.1 6 Este 12 Este 0 -- -- 88
2020-03-26 23:00:00 0.6 5 Este 9 Este 0 -- -- 86
2020-03-26 22:00:00 1.8 4 Este 6 Este 0 -- -- 81
2020-03-26 21:00:00 2.8 4 Sudoeste 10 Sudoeste 0 -- -- 76
2020-03-26 20:00:00 3.8 3 Sur 11 Sudoeste 0 -- -- 73
2020-03-26 19:00:00 5.3 3 Este 12 Este 0 -- -- 65
2020-03-26 18:00:00 6 7 Este 16 Este 0 -- -- 58
2020-03-26 17:00:00 6.5 7 Este 32 Este 0 -- -- 59
2020-03-26 16:00:00 7.3 11 Este 28 Este 0 -- -- 55
2020-03-26 15:00:00 7.8 7 Este 21 Este 0 -- -- 53
2020-03-26 14:00:00 8.1 12 Este 28 Este 0 -- -- 57
2020-03-26 13:00:00 7.3 4 Este 20 Nordeste 0 -- -- 68
2020-03-26 12:00:00 4.5 9 Nordeste 25 Este 0 -- -- 79
2020-03-26 11:00:00 5.3 13 Nordeste 26 Nordeste 0 -- -- 71
2020-03-26 10:00:00 5.5 10 Nordeste 18 Este 0 -- -- 68
2020-03-26 09:00:00 3.3 5 Este 17 Nordeste 0 -- -- 78
2020-03-26 08:00:00 1 5 Este 12 Este 0 -- -- 90
2020-03-26 07:00:00 0 4 Nordeste 11 Nordeste 0 -- -- 91
2020-03-26 06:00:00 0.1 5 Este 16 Nordeste 0 -- -- 90
2020-03-26 05:00:00 -0.2 8 Nordeste 13 Este 0 -- -- 93
2020-03-26 04:00:00 -0.1 5 Este 10 Este 0 -- -- 91
2020-03-26 03:00:00 0.4 4 Este 12 Este 0 -- -- 91
2020-03-26 02:00:00 0.7 5 Este 10 Sudeste 0 -- -- 90
2020-03-26 01:00:00 1 6 Este 10 Este 0 -- -- 89
2020-03-26 00:00:00 2 0 Calma 6 Este 0 -- -- 84
2020-03-25 23:00:00 2.7 0 Calma 5 Este 0 -- -- 82
2020-03-25 22:00:00 3.2 2 Este 5 Nordeste 0 -- -- 80
2020-03-25 21:00:00 4.1 3 Este 6 Este 0 -- -- 77
2020-03-25 20:00:00 5 2 Sudeste 21 Sudoeste 0 -- -- 74
2020-03-25 19:00:00 5.7 9 Sudoeste 18 Oeste 0 -- -- 64
2020-03-25 18:00:00 6.5 11 Oeste 22 Sudoeste 0 -- -- 62
2020-03-25 17:00:00 7.3 13 Oeste 25 Oeste 0 -- -- 56
2020-03-25 16:00:00 7.6 15 Oeste 24 Oeste 0 -- -- 51
2020-03-25 15:00:00 7.8 14 Sudoeste 24 Oeste 0 -- -- 52
2020-03-25 14:00:00 8.8 9 Sudoeste 22 Sudoeste 0.2 -- -- 48
2020-03-25 13:00:00 8.3 8 Sudoeste 14 Sudoeste 0 -- -- 57
2020-03-25 12:00:00 6.2 5 Nordeste 12 Nordeste 0 -- -- 58
2020-03-25 11:00:00 5 7 Nordeste 20 Este 0 -- -- 66
2020-03-25 10:00:00 3.8 10 Nordeste 24 Nordeste 0 -- -- 70
2020-03-25 09:00:00 3 9 Nordeste 26 Norte 0 -- -- 69
2020-03-25 08:00:00 1.7 6 Norte 22 Norte 0 -- -- 76
2020-03-25 07:00:00 1.1 4 Nordeste 26 Nordeste 0.2 -- -- 90
2020-03-25 06:00:00 2.3 11 Nordeste 21 Nordeste 0 -- -- 81
2020-03-25 05:00:00 2.3 3 Nordeste 14 Nordeste 0 -- -- 85
2020-03-25 04:00:00 2.8 6 Nordeste 12 Nordeste 0.2 -- -- 85
2020-03-25 03:00:00 3.5 6 Este 17 Sudeste 0 -- -- 85
2020-03-25 02:00:00 4.3 5 Sudeste 10 Sudeste 0 -- -- 81
2020-03-25 01:00:00 4.6 3 Este 10 Este 0 -- -- 79
2020-03-25 00:00:00 4.8 4 Este 15 Nordeste 0 -- -- 77
2020-03-24 23:00:00 4.9 6 Este 14 Nordeste 0 -- -- 78
2020-03-24 22:00:00 5 3 Este 10 Nordeste 0 -- -- 80
2020-03-24 21:00:00 4.9 4 Nordeste 12 Este 0 -- -- 86
2020-03-24 20:00:00 5.5 7 Nordeste 14 Nordeste 0 -- -- 83
2020-03-24 19:00:00 6.2 6 Nordeste 13 Nordeste 0 -- -- 81
2020-03-24 18:00:00 6.9 4 Este 17 Este 0 -- -- 80
2020-03-24 17:00:00 7.7 6 Este 21 Este 0 -- -- 76
2020-03-24 16:00:00 9.2 3 Sur 13 Sudoeste 0 -- -- 67
2020-03-24 15:00:00 9.8 3 Este 16 Sudoeste 0 -- -- 63
2020-03-24 14:00:00 10.2 8 Sudoeste 22 Oeste 0 -- -- 65
2020-03-24 13:00:00 10.2 11 Sudoeste 26 Sudoeste 0 -- -- 68
2020-03-24 12:00:00 11.6 13 Sudoeste 23 Sudoeste 0 -- -- 65
2020-03-24 11:00:00 12.1 6 Nordeste 17 Este 0 -- -- 57
2020-03-24 10:00:00 11.1 8 Este 18 Este 0 -- -- 63
2020-03-24 09:00:00 8.9 7 Este 16 Este 0 -- -- 71
2020-03-24 08:00:00 7.7 4 Nordeste 10 Nordeste 0 -- -- 78
2020-03-24 07:00:00 7.3 7 Nordeste 12 Nordeste 0 -- -- 79
2020-03-24 06:00:00 7.1 2 Norte 5 Norte 0 -- -- 81
2020-03-24 05:00:00 7.4 2 Noroeste 5 Oeste 0 -- -- 88
2020-03-24 04:00:00 7.5 3 Oeste 14 Este 0 -- -- 87
2020-03-24 03:00:00 8 8 Sudeste 21 Nordeste 0 -- -- 83
2020-03-24 02:00:00 8.1 4 Nordeste 9 Nordeste 0 -- -- 82
2020-03-24 01:00:00 8.1 3 Este 10 Nordeste 0 -- -- 82
2020-03-24 00:00:00 8.3 5 Nordeste 15 Este 0 -- -- 80
2020-03-23 23:00:00 8.7 3 Nordeste 21 Nordeste 0 -- -- 78
2020-03-23 22:00:00 9.1 11 Nordeste 25 Este 0 -- -- 76
2020-03-23 21:00:00 9.2 12 Nordeste 22 Nordeste 0 -- -- 78
2020-03-23 20:00:00 9.6 6 Este 18 Este 0 -- -- 75
2020-03-23 19:00:00 10.3 6 Este 25 Este 0 -- -- 73
2020-03-23 18:00:00 10.9 12 Nordeste 23 Este 0 -- -- 71
2020-03-23 17:00:00 11.4 8 Nordeste 20 Nordeste 0 -- -- 74
2020-03-23 16:00:00 10.9 7 Nordeste 14 Nordeste 0 -- -- 79
2020-03-23 15:00:00 10.6 5 Nordeste 14 Este 0.2 -- -- 82
2020-03-23 14:00:00 10.6 2 Sudeste 8 Nordeste 0 -- -- 77
2020-03-23 13:00:00 10.7 0 Calma 5 Noroeste 0.4 -- -- 79
2020-03-23 12:00:00 10.9 2 Sudoeste 8 Este 0.2 -- -- 78
2020-03-23 11:00:00 10.4 3 Nordeste 17 Nordeste 0 -- -- 73
2020-03-23 10:00:00 10 7 Nordeste 14 Este 0 -- -- 75
2020-03-23 09:00:00 9.3 6 Nordeste 19 Nordeste 0 -- -- 78
2020-03-23 08:00:00 8.5 5 Este 11 Sudeste 0 -- -- 78
2020-03-23 07:00:00 8.4 5 Este 10 Nordeste 0 -- -- 79
2020-03-23 06:00:00 8.6 4 Este 9 Sudeste 0 -- -- 78
2020-03-23 05:00:00 8.8 7 Este 13 Este 0 -- -- 74
2020-03-23 04:00:00 8.6 4 Este 11 Nordeste 0 -- -- 76
2020-03-23 03:00:00 8.3 8 Nordeste 16 Este 0 -- -- 77
2020-03-23 02:00:00 8.1 7 Este 14 Este 0 -- -- 79
2020-03-23 01:00:00 8 4 Nordeste 10 Este 0 -- -- 83
2020-03-23 00:00:00 9.1 3 Este 15 Nordeste 0 -- -- 76
2020-03-22 23:00:00 9.9 9 Nordeste 16 Nordeste 0 -- -- 76
2020-03-22 22:00:00 10.4 4 Nordeste 10 Este 0 -- -- 74
2020-03-22 21:00:00 10.7 6 Sudeste 13 Este 0 -- -- 72
2020-03-22 20:00:00 11 3 Este 13 Sudeste 0 -- -- 68
2020-03-22 19:00:00 11.3 4 Sur 12 Sudoeste 0 -- -- 66
2020-03-22 18:00:00 12.3 7 Sudoeste 18 Sudoeste 0 -- -- 65
2020-03-22 17:00:00 14 9 Sudoeste 21 Sudoeste 0 -- -- 59
2020-03-22 16:00:00 15 4 Sudeste 12 Sudoeste 0 -- -- 52
2020-03-22 15:00:00 14.1 4 Oeste 14 Noroeste 0 -- -- 57
2020-03-22 14:00:00 12.9 3 Nordeste 14 Este 0 -- -- 59
2020-03-22 13:00:00 12.4 6 Este 15 Este 0 -- -- 62
2020-03-22 12:00:00 12.1 5 Sudoeste 15 Sudoeste 0 -- -- 69
2020-03-22 11:00:00 11.8 8 Sudoeste 16 Sudeste 0 -- -- 69
2020-03-22 10:00:00 11.7 3 Noroeste 9 Sudoeste 0 -- -- 73
2020-03-22 09:00:00 9.6 5 Sudeste 12 Este 0 -- -- 82
2020-03-22 08:00:00 8.4 4 Este 10 Este 0 -- -- 89
2020-03-22 07:00:00 7.9 3 Este 7 Este 0 -- -- 91
2020-03-22 06:00:00 8.1 3 Este 5 Este 0 -- -- 90
2020-03-22 05:00:00 8.4 4 Sudoeste 5 Sudoeste 0 -- -- 89
2020-03-22 04:00:00 8.6 2 Nordeste 5 Nordeste 0 -- -- 88
2020-03-22 03:00:00 8.8 2 Este 6 Sudoeste 0 -- -- 87
2020-03-22 02:00:00 9 3 Oeste 6 Sur 0 -- -- 85
2020-03-22 01:00:00 9.2 3 Sudoeste 7 Sur 0 -- -- 83
2020-03-22 00:00:00 9.6 4 Sur 9 Sudoeste 0 -- -- 78
2020-03-21 23:00:00 10 4 Sudoeste 11 Sudoeste 0 -- -- 76
2020-03-21 22:00:00 10.2 7 Sudoeste 14 Sudoeste 0 -- -- 74
2020-03-21 21:00:00 10.5 9 Sudoeste 14 Oeste 0 -- -- 72
2020-03-21 20:00:00 11.1 6 Oeste 15 Sudoeste 0 -- -- 70
2020-03-21 19:00:00 11.9 9 Sudoeste 14 Sudoeste 0 -- -- 63
2020-03-21 18:00:00 12.7 8 Sudoeste 17 Sudoeste 0 -- -- 59
2020-03-21 17:00:00 13.6 11 Sudoeste 17 Oeste 0 -- -- 54
2020-03-21 16:00:00 14.8 9 Oeste 21 Oeste 0 -- -- 47
2020-03-21 15:00:00 15.4 14 Oeste 24 Oeste 0 -- -- 45
2020-03-21 14:00:00 15.2 12 Sudoeste 21 Sudoeste 0 -- -- 47
2020-03-21 13:00:00 14.2 10 Sudoeste 22 Sudoeste 0 -- -- 48
2020-03-21 12:00:00 13.2 9 Sur 19 Este 0 -- -- 50
2020-03-21 11:00:00 12.7 6 Sudeste 15 Sur 0 -- -- 47
2020-03-21 10:00:00 11.1 2 Oeste 14 Este 0 -- -- 61
2020-03-21 09:00:00 7.7 6 Este 18 Este 0 -- -- 70
2020-03-21 08:00:00 3.9 8 Este 15 Este 0 -- -- 81
2020-03-21 07:00:00 3.4 8 Este 14 Este 0 -- -- 84
2020-03-21 06:00:00 3.7 5 Este 16 Nordeste 0 -- -- 84
2020-03-21 05:00:00 4.1 7 Este 18 Nordeste 0 -- -- 84
2020-03-21 04:00:00 5 13 Nordeste 23 Nordeste 0 -- -- 80
2020-03-21 03:00:00 5.6 10 Nordeste 20 Nordeste 0 -- -- 78
2020-03-21 02:00:00 5.9 10 Nordeste 19 Nordeste 0 -- -- 79
2020-03-21 01:00:00 5.7 9 Este 13 Este 0 -- -- 81
2020-03-21 00:00:00 6.4 5 Este 9 Nordeste 0 -- -- 80
2020-03-20 23:00:00 7.3 4 Este 6 Este 0 -- -- 77
2020-03-20 22:00:00 7.6 4 Este 6 Este 0 -- -- 75
2020-03-20 21:00:00 8.7 0 Calma 8 Sur 0 -- -- 69
2020-03-20 20:00:00 9.5 5 Sudoeste 15 Sudoeste 0 -- -- 66
2020-03-20 19:00:00 10.9 13 Sudoeste 24 Sudoeste 0 -- -- 66
2020-03-20 18:00:00 12.5 13 Sudoeste 25 Sudoeste 0 -- -- 59
2020-03-20 17:00:00 14.8 10 Sudoeste 18 Sudoeste 0 -- -- 51
2020-03-20 16:00:00 15.7 11 Sudoeste 30 Sur 0 -- -- 47
2020-03-20 15:00:00 16.2 13 Oeste 22 Sudoeste 0 -- -- 38
2020-03-20 14:00:00 15.7 12 Oeste 22 Oeste 0 -- -- 39
2020-03-20 13:00:00 15 11 Oeste 18 Oeste 0 -- -- 46
2020-03-20 12:00:00 14.1 9 Sudoeste 17 Sudoeste 0 -- -- 53
2020-03-20 11:00:00 12.2 7 Oeste 14 Sudoeste 0 -- -- 61
2020-03-20 10:00:00 11.6 6 Sudoeste 10 Sudoeste 0 -- -- 63
2020-03-20 09:00:00 8.6 3 Sudoeste 15 Este 0 -- -- 74
2020-03-20 08:00:00 4.6 9 Este 16 Este 0 -- -- 80
2020-03-20 07:00:00 4.2 8 Este 17 Este 0 -- -- 83
2020-03-20 06:00:00 4.2 8 Este 13 Este 0 -- -- 84
2020-03-20 05:00:00 4.6 9 Este 12 Este 0 -- -- 85
2020-03-20 04:00:00 5.3 7 Este 13 Nordeste 0 -- -- 84
2020-03-20 03:00:00 5.9 4 Nordeste 10 Este 0 -- -- 85
2020-03-20 02:00:00 6.6 7 Este 12 Este 0 -- -- 86
2020-03-20 01:00:00 7 5 Este 12 Este 0 -- -- 87
2020-03-20 00:00:00 7.5 6 Este 10 Este 0 -- -- 86
2020-03-19 23:00:00 8.1 5 Este 8 Este 0 -- -- 85
2020-03-19 22:00:00 9 5 Este 6 Este 0 -- -- 80
2020-03-19 21:00:00 9.9 3 Este 5 Nordeste 0 -- -- 77
2020-03-19 20:00:00 11.3 3 Sur 9 Sudoeste 0 -- -- 71
2020-03-19 19:00:00 12 8 Sudoeste 15 Sudoeste 0 -- -- 69
2020-03-19 18:00:00 14.6 10 Sudoeste 19 Sudoeste 0 -- -- 62
2020-03-19 17:00:00 16.3 14 Sudoeste 23 Oeste 0 -- -- 56
2020-03-19 16:00:00 17.5 14 Oeste 27 Sudoeste 0 -- -- 52
2020-03-19 15:00:00 18.3 11 Sudoeste 31 Sudoeste 0 -- -- 45
2020-03-19 14:00:00 18.6 12 Sudoeste 25 Sudoeste 0 -- -- 35
2020-03-19 13:00:00 18 10 Noroeste 18 Oeste 0 -- -- 38
2020-03-19 12:00:00 17.1 5 Sudoeste 13 Sudoeste 0 -- -- 42
2020-03-19 11:00:00 15.4 7 Sudoeste 15 Este 0 -- -- 54
2020-03-19 10:00:00 13.4 8 Este 13 Este 0 -- -- 51
2020-03-19 09:00:00 10.4 7 Este 23 Este 0 -- -- 62
2020-03-19 08:00:00 6.3 9 Este 17 Este 0 -- -- 77
2020-03-19 07:00:00 5.2 8 Este 16 Nordeste 0 -- -- 85
2020-03-19 06:00:00 5.4 9 Este 15 Este 0 -- -- 86
2020-03-19 05:00:00 6 9 Este 14 Este 0 -- -- 86
2020-03-19 04:00:00 6.3 8 Este 14 Este 0 -- -- 86
2020-03-19 03:00:00 6.5 8 Este 12 Nordeste 0 -- -- 88
2020-03-19 02:00:00 6.9 8 Este 12 Este 0 -- -- 88
2020-03-19 01:00:00 7.3 7 Este 11 Este 0 -- -- 88
2020-03-19 00:00:00 7.8 8 Este 10 Este 0 -- -- 87
2020-03-18 23:00:00 8.4 6 Nordeste 10 Nordeste 0 -- -- 86
2020-03-18 22:00:00 9.3 6 Este 9 Nordeste 0 -- -- 84
2020-03-18 21:00:00 10.2 4 Nordeste 6 Este 0 -- -- 80
2020-03-18 20:00:00 11.4 3 Este 5 Este 0 -- -- 72
2020-03-18 19:00:00 12.8 4 Sudoeste 6 Sudoeste 0 -- -- 67
2020-03-18 18:00:00 14.1 3 Sudoeste 9 Sudoeste 0 -- -- 65
2020-03-18 17:00:00 15 6 Sudoeste 12 Sudoeste 0 -- -- 63
2020-03-18 16:00:00 15.2 0 Calma 8 Sudoeste 0 -- -- 51
2020-03-18 15:00:00 14.9 4 Sudoeste 12 Sur 0 -- -- 53
2020-03-18 14:00:00 14.1 5 Sudoeste 12 Sudoeste 0 -- -- 53
2020-03-18 13:00:00 13.3 7 Sudoeste 12 Oeste 0 -- -- 62
2020-03-18 12:00:00 13 9 Sudoeste 13 Sudoeste 0 -- -- 65
2020-03-18 11:00:00 11.9 5 Sudoeste 8 Sur 0 -- -- 73
2020-03-18 10:00:00 9.5 4 Este 11 Nordeste 0 -- -- 82
2020-03-18 09:00:00 7.9 6 Este 11 Este 0 -- -- 86
2020-03-18 08:00:00 7.2 9 Este 15 Este 0 -- -- 87
2020-03-18 07:00:00 6.9 7 Este 13 Este 0 -- -- 89
2020-03-18 06:00:00 7.2 5 Nordeste 12 Nordeste 0 -- -- 88
2020-03-18 05:00:00 7.9 7 Nordeste 13 Nordeste 0 -- -- 87
2020-03-18 04:00:00 7.1 6 Este 11 Este 0 -- -- 91
2020-03-18 03:00:00 7.2 6 Nordeste 12 Este 0 -- -- 92
2020-03-18 02:00:00 7.3 6 Este 10 Este 0 -- -- 92
2020-03-18 01:00:00 7.7 5 Este 10 Este 0 -- -- 92
2020-03-18 00:00:00 8.2 6 Este 10 Este 0 -- -- 91
2020-03-17 23:00:00 8.5 5 Este 10 Este 0 -- -- 92
2020-03-17 22:00:00 9.2 5 Este 8 Este 0 -- -- 89
2020-03-17 21:00:00 9.7 4 Este 6 Este 0 -- -- 86
2020-03-17 20:00:00 10.4 0 Calma 8 Sudoeste 0 -- -- 85
2020-03-17 19:00:00 11.1 6 Oeste 10 Oeste 0 -- -- 83
2020-03-17 18:00:00 12.1 8 Oeste 10 Sudoeste 0 -- -- 80
2020-03-17 17:00:00 12.8 9 Sudoeste 12 Oeste 0 -- -- 78
2020-03-17 16:00:00 13.4 7 Oeste 10 Oeste 0 -- -- 76
2020-03-17 15:00:00 13.8 4 Sur 11 Este 0 -- -- 72
2020-03-17 14:00:00 14 6 Este 11 Nordeste 0 -- -- 61
2020-03-17 13:00:00 13.1 4 Este 20 Este 0 -- -- 64
2020-03-17 12:00:00 13.3 12 Nordeste 19 Nordeste 0 -- -- 58
2020-03-17 11:00:00 12.1 10 Nordeste 26 Nordeste 0 -- -- 65
2020-03-17 10:00:00 11.2 11 Nordeste 28 Nordeste 0 -- -- 69
2020-03-17 09:00:00 10.6 11 Nordeste 21 Nordeste 0 -- -- 71
2020-03-17 08:00:00 10.4 10 Nordeste 23 Este 0 -- -- 71
2020-03-17 07:00:00 10.5 16 Nordeste 28 Nordeste 0 -- -- 69
2020-03-17 06:00:00 10.2 12 Nordeste 28 Nordeste 0 -- -- 71
2020-03-17 05:00:00 9.9 9 Nordeste 33 Nordeste 0 -- -- 73
2020-03-17 04:00:00 10.1 10 Nordeste 29 Nordeste 0.2 -- -- 70
2020-03-17 03:00:00 10.5 13 Nordeste 30 Nordeste 0 -- -- 69
2020-03-17 02:00:00 9.7 11 Nordeste 27 Nordeste 0 -- -- 79
2020-03-17 01:00:00 10.1 13 Nordeste 29 Este 0 -- -- 77
2020-03-17 00:00:00 9.8 9 Nordeste 30 Nordeste 0 -- -- 80
2020-03-16 23:00:00 9.4 10 Nordeste 26 Nordeste 0 -- -- 83
2020-03-16 22:00:00 9.4 12 Nordeste 28 Nordeste 0 -- -- 83
2020-03-16 21:00:00 8.6 12 Nordeste 37 Nordeste 0.8 -- -- 87
2020-03-16 20:00:00 8.6 17 Nordeste 40 Este 0 -- -- 82
2020-03-16 19:00:00 8.4 19 Nordeste 31 Este 2 -- -- 86
2020-03-16 18:00:00 8.3 12 Nordeste 23 Nordeste 4.4 -- -- 91
2020-03-16 17:00:00 8.7 12 Nordeste 32 Nordeste 2 -- -- 88
2020-03-16 16:00:00 8.8 18 Nordeste 34 Este 2.2 -- -- 87
2020-03-16 15:00:00 8.7 13 Nordeste 27 Este 1.2 -- -- 85
2020-03-16 14:00:00 8.9 7 Nordeste 24 Nordeste 1.8 -- -- 84
2020-03-16 13:00:00 9.3 14 Nordeste 37 Nordeste 0 -- -- 75
2020-03-16 12:00:00 8.8 18 Nordeste 31 Nordeste 0.2 -- -- 77
2020-03-16 11:00:00 8.6 10 Nordeste 29 Nordeste 0 -- -- 84
2020-03-16 10:00:00 8.4 10 Nordeste 23 Nordeste 0.2 -- -- 80
2020-03-16 09:00:00 9.2 13 Nordeste 21 Nordeste 0 -- -- 85
2020-03-16 08:00:00 9 7 Nordeste 15 Nordeste 0 -- -- 87
2020-03-16 07:00:00 8.4 8 Nordeste 15 Nordeste 0 -- -- 93
2020-03-16 06:00:00 8.2 5 Este 10 Este 0 -- -- 95
2020-03-16 05:00:00 8.3 3 Este 6 Nordeste 0.8 -- -- 95
2020-03-16 04:00:00 8.4 3 Este 7 Norte 0.6 -- -- 94
2020-03-16 03:00:00 8.4 3 Noroeste 8 Norte 0.8 -- -- 93
2020-03-16 02:00:00 8.5 0 Calma 12 Oeste 1.6 -- -- 92
2020-03-16 01:00:00 9 10 Oeste 16 Oeste 0 -- -- 87
2020-03-16 00:00:00 9.4 5 Oeste 14 Oeste 0 -- -- 88
2020-03-15 23:00:00 9.6 6 Oeste 11 Sudoeste 0 -- -- 83
2020-03-15 22:00:00 9.8 8 Sudoeste 13 Sudoeste 0 -- -- 82
2020-03-15 21:00:00 10.2 10 Sudoeste 17 Sudoeste 0 -- -- 80
2020-03-15 20:00:00 10.8 8 Sudoeste 17 Sudoeste 0 -- -- 78
2020-03-15 19:00:00 11.6 12 Sudoeste 17 Sudoeste 0 -- -- 75
2020-03-15 18:00:00 12.7 6 Sudoeste 17 Sudoeste 0 -- -- 72
2020-03-15 17:00:00 13.2 12 Sudoeste 26 Sudoeste 0 -- -- 71
2020-03-15 16:00:00 15.3 15 Sudoeste 26 Sudoeste 0 -- -- 64
2020-03-15 15:00:00 15.1 11 Sudoeste 23 Sudoeste 0 -- -- 65
2020-03-15 14:00:00 13.6 8 Sur 18 Sudoeste 0 -- -- 71
2020-03-15 13:00:00 12.4 7 Oeste 17 Sudoeste 0 -- -- 75
2020-03-15 12:00:00 9.6 8 Sudoeste 15 Oeste 0 -- -- 87
2020-03-15 11:00:00 9 7 Sudoeste 12 Sudoeste 0 -- -- 95
2020-03-15 10:00:00 7.8 5 Sudoeste 9 Sudoeste 0 -- -- 97
2020-03-15 09:00:00 6.8 3 Este 6 Este 0 -- -- 97
2020-03-15 08:00:00 6.3 0 Calma 9 Oeste 0 -- -- 96
2020-03-15 07:00:00 6.3 3 Sudeste 7 Sudoeste 0 -- -- 94
2020-03-15 06:00:00 6.9 0 Calma 6 Sudoeste 0 -- -- 92
2020-03-15 05:00:00 7.9 3 Sudoeste 11 Este 0 -- -- 87
2020-03-15 04:00:00 9.2 6 Este 12 Este 0 -- -- 83
2020-03-15 03:00:00 9 4 Este 7 Este 0 -- -- 85
2020-03-15 02:00:00 9.1 0 Calma 4 Oeste 0 -- -- 85
2020-03-15 01:00:00 9.4 2 Oeste 8 Sudoeste 0 -- -- 89
2020-03-15 00:00:00 9.6 5 Sur 10 Sur 0 -- -- 91
2020-03-14 23:00:00 10.1 5 Sudoeste 8 Sudoeste 0 -- -- 90
2020-03-14 22:00:00 10.3 3 Oeste 5 Oeste 0 -- -- 89
2020-03-14 21:00:00 10.3 3 Sudoeste 8 Sudoeste 0 -- -- 87
2020-03-14 20:00:00 11.3 5 Sudeste 10 Oeste 0 -- -- 72
2020-03-14 19:00:00 12.4 8 Oeste 14 Oeste 0 -- -- 68
2020-03-14 18:00:00 13.7 2 Sur 13 Sudoeste 0 -- -- 68
2020-03-14 17:00:00 13.7 4 Sudeste 13 Sur 0 -- -- 68
2020-03-14 16:00:00 13.7 6 Sur 16 Sudoeste 0 -- -- 71
2020-03-14 15:00:00 14 7 Sudoeste 13 Sudoeste 0 -- -- 72
2020-03-14 14:00:00 13.6 8 Oeste 14 Sudoeste 0 -- -- 75
2020-03-14 13:00:00 13 8 Sudoeste 14 Sudoeste 0 -- -- 78
2020-03-14 12:00:00 11.8 7 Sudoeste 13 Sudoeste 0 -- -- 82
2020-03-14 11:00:00 11.3 8 Sudoeste 13 Sudoeste 0 -- -- 85
2020-03-14 10:00:00 10.4 5 Sudoeste 9 Sudoeste 0 -- -- 89
2020-03-14 09:00:00 9.7 5 Sudoeste 8 Sudoeste 0 -- -- 90
2020-03-14 08:00:00 9 2 Este 4 Este 0 -- -- 88
2020-03-14 07:00:00 8.8 3 Sudoeste 6 Sudoeste 0 -- -- 88
2020-03-14 06:00:00 8.9 0 Calma 5 Este 0 -- -- 87
2020-03-14 05:00:00 8.6 4 Este 8 Este 0 -- -- 89
2020-03-14 04:00:00 8.5 4 Este 9 Este 0 -- -- 89
2020-03-14 03:00:00 8.3 3 Este 7 Este 0 -- -- 90
2020-03-14 02:00:00 8.8 5 Este 6 Este 0 -- -- 87
2020-03-14 01:00:00 9.4 4 Este 6 Este 0 -- -- 86
2020-03-14 00:00:00 10.4 4 Este 7 Este 0 -- -- 81
2020-03-13 23:00:00 11.5 0 Calma 4 Oeste 0 -- -- 77
2020-03-13 22:00:00 12.1 0 Calma 8 Sur 0 -- -- 74
2020-03-13 21:00:00 12.8 0 Calma 5 Este 0 -- -- 72
2020-03-13 20:00:00 13.4 2 Este 8 Sudeste 0 -- -- 70
2020-03-13 19:00:00 14.1 3 Este 12 Este 0 -- -- 67
2020-03-13 18:00:00 14.9 5 Sudeste 14 Sudeste 0 -- -- 65
2020-03-13 17:00:00 15.9 7 Sur 24 Sudoeste 0 -- -- 61
2020-03-13 16:00:00 17.3 18 Sudoeste 31 Sudoeste 0 -- -- 58
2020-03-13 15:00:00 17 17 Sudoeste 26 Sudoeste 0 -- -- 59
2020-03-13 14:00:00 18.2 15 Sudoeste 25 Sudoeste 0 -- -- 53
2020-03-13 13:00:00 17.3 13 Sudoeste 23 Sur 0 -- -- 53
2020-03-13 12:00:00 16.8 13 Oeste 21 Oeste 0 -- -- 53
2020-03-13 11:00:00 15.8 10 Oeste 16 Oeste 0 -- -- 59
2020-03-13 10:00:00 13.2 7 Sudoeste 10 Sudoeste 0 -- -- 74
2020-03-13 09:00:00 11.9 4 Este 6 Este 0 -- -- 80
2020-03-13 08:00:00 9.8 3 Este 7 Este 0 -- -- 88
2020-03-13 07:00:00 9.6 4 Este 8 Este 0 -- -- 87
2020-03-13 06:00:00 10 4 Este 8 Este 0 -- -- 87
2020-03-13 05:00:00 9.9 4 Este 9 Sudoeste 0 -- -- 86
2020-03-13 04:00:00 10.9 3 Sudeste 8 Este 0 -- -- 82
2020-03-13 03:00:00 11.5 0 Calma 9 Este 0 -- -- 80
2020-03-13 02:00:00 12 2 Nordeste 10 Este 0 -- -- 78
2020-03-13 01:00:00 12.4 6 Este 10 Nordeste 0 -- -- 75
2020-03-13 00:00:00 13 4 Este 8 Nordeste 0 -- -- 73
2020-03-12 23:00:00 13.7 5 Este 9 Este 0 -- -- 70
2020-03-12 22:00:00 14.6 5 Este 8 Este 0 -- -- 68
2020-03-12 21:00:00 16.5 3 Este 9 Sudeste 0 -- -- 61
2020-03-12 20:00:00 18 4 Sur 9 Sur 0 -- -- 54
2020-03-12 19:00:00 19.3 0 Calma 12 Sudoeste 0 -- -- 52
2020-03-12 18:00:00 21.5 8 Sudoeste 14 Sudoeste 0 -- -- 46
2020-03-12 17:00:00 22.7 10 Sudoeste 18 Sur 0 -- -- 45
2020-03-12 16:00:00 22.5 9 Sudoeste 21 Sudoeste 0 -- -- 41
2020-03-12 15:00:00 23.1 11 Sudoeste 24 Sudoeste 0 -- -- 39
2020-03-12 14:00:00 23.7 13 Sudoeste 21 Sudoeste 0 -- -- 41
2020-03-12 13:00:00 23.3 10 Sudoeste 16 Sudoeste 0 -- -- 33
2020-03-12 12:00:00 22.4 7 Sudoeste 11 Sudoeste 0 -- -- 41
2020-03-12 11:00:00 20 3 Sur 10 Nordeste 0 -- -- 48
2020-03-12 10:00:00 15.6 6 Este 16 Nordeste 0 -- -- 52
2020-03-12 09:00:00 10.8 7 Este 13 Este 0 -- -- 71
2020-03-12 08:00:00 9.3 8 Este 14 Este 0 -- -- 71
2020-03-12 07:00:00 8.6 9 Este 14 Este 0 -- -- 74
2020-03-12 06:00:00 8.1 10 Este 16 Este 0 -- -- 78
2020-03-12 05:00:00 8.2 7 Este 12 Nordeste 0 -- -- 77
2020-03-12 04:00:00 9.6 5 Este 13 Este 0 -- -- 71
2020-03-12 03:00:00 10.6 8 Este 22 Nordeste 0 -- -- 67
2020-03-12 02:00:00 10.3 8 Este 14 Este 0 -- -- 69
2020-03-12 01:00:00 10.4 6 Este 13 Este 0 -- -- 69
2020-03-12 00:00:00 10.4 7 Este 12 Este 0 -- -- 69
2020-03-11 23:00:00 11.7 5 Nordeste 13 Este 0 -- -- 64
2020-03-11 22:00:00 12.3 6 Este 10 Este 0 -- -- 61
2020-03-11 21:00:00 13.4 6 Este 10 Este 0 -- -- 56
2020-03-11 20:00:00 15.6 3 Nordeste 6 Sudeste 0 -- -- 49
2020-03-11 19:00:00 17.6 4 Sudoeste 14 Oeste 0 -- -- 42
2020-03-11 18:00:00 20.2 8 Sudoeste 15 Sudoeste 0 -- -- 38
2020-03-11 17:00:00 21.4 9 Sudoeste 17 Sudoeste 0 -- -- 39
2020-03-11 16:00:00 21.6 8 Sudoeste 17 Sudoeste 0 -- -- 39
2020-03-11 15:00:00 20.8 8 Sudoeste 22 Sudoeste 0 -- -- 45
2020-03-11 14:00:00 20.1 10 Sudoeste 18 Sudoeste 0 -- -- 46
2020-03-11 13:00:00 19.1 10 Sudoeste 22 Oeste 0 -- -- 47
2020-03-11 12:00:00 17.9 8 Sudoeste 12 Sudoeste 0 -- -- 50
2020-03-11 11:00:00 15.6 4 Sudoeste 9 Oeste 0 -- -- 56
2020-03-11 10:00:00 12.7 6 Sudoeste 10 Sudoeste 0 -- -- 66
2020-03-11 09:00:00 9.7 5 Este 14 Este 0 -- -- 71
2020-03-11 08:00:00 6.2 9 Este 15 Este 0 -- -- 82
2020-03-11 07:00:00 5.9 9 Este 13 Este 0 -- -- 84
2020-03-11 06:00:00 5.9 8 Este 10 Este 0 -- -- 86
2020-03-11 05:00:00 6.5 4 Este 12 Este 0 -- -- 84
2020-03-11 04:00:00 7 5 Nordeste 14 Este 0 -- -- 84
2020-03-11 03:00:00 7.5 8 Este 18 Este 0 -- -- 83
2020-03-11 02:00:00 7.2 8 Este 12 Este 0 -- -- 85
2020-03-11 01:00:00 7.2 8 Este 13 Nordeste 0 -- -- 85
2020-03-11 00:00:00 8.2 4 Nordeste 16 Este 0 -- -- 81
2020-03-10 23:00:00 8.5 7 Este 14 Este 0 -- -- 80
2020-03-10 22:00:00 8.3 5 Este 11 Este 0 -- -- 80
2020-03-10 21:00:00 8.8 5 Este 9 Este 0 -- -- 78
2020-03-10 20:00:00 9.6 0 Calma 6 Sur 0 -- -- 73
2020-03-10 19:00:00 10.5 4 Sur 6 Sur 0 -- -- 68
2020-03-10 18:00:00 11.1 4 Sudoeste 12 Sur 0 -- -- 67
2020-03-10 17:00:00 11.8 7 Sudoeste 13 Sudoeste 0 -- -- 65
2020-03-10 16:00:00 12.9 10 Sudoeste 18 Sudoeste 0 -- -- 62
2020-03-10 15:00:00 15.1 6 Sudoeste 18 Sudoeste 0 -- -- 56
2020-03-10 14:00:00 14.5 9 Sudoeste 18 Sudoeste 0 -- -- 55
2020-03-10 13:00:00 12.5 5 Sur 18 Oeste 0 -- -- 59
2020-03-10 12:00:00 12 7 Oeste 20 Sudoeste 0 -- -- 65
2020-03-10 11:00:00 10.3 6 Sudoeste 13 Sudoeste 0 -- -- 69
2020-03-10 10:00:00 8.1 3 Sudoeste 9 Sudoeste 0 -- -- 77
2020-03-10 09:00:00 5.4 5 Sudoeste 9 Sudoeste 0 -- -- 89
2020-03-10 08:00:00 4.5 3 Oeste 8 Sudoeste 0 -- -- 90
2020-03-10 07:00:00 4.5 4 Sur 8 Sudoeste 0 -- -- 90
2020-03-10 06:00:00 5.3 3 Sudoeste 5 Sudoeste 0 -- -- 88
2020-03-10 05:00:00 5.1 3 Oeste 8 Oeste 0 -- -- 90
2020-03-10 04:00:00 5.5 6 Oeste 11 Sur 0 -- -- 90
2020-03-10 03:00:00 6.3 3 Sudoeste 6 Sudeste 0 -- -- 89
2020-03-10 02:00:00 6.8 4 Sudoeste 6 Sudoeste 0 -- -- 87
2020-03-10 01:00:00 7 4 Oeste 8 Sudoeste 0 -- -- 86
2020-03-10 00:00:00 7.1 4 Sudoeste 9 Sudoeste 0 -- -- 85
2020-03-09 23:00:00 6.7 5 Oeste 9 Oeste 0 -- -- 86
2020-03-09 22:00:00 7.1 6 Oeste 10 Oeste 0 -- -- 82
2020-03-09 21:00:00 8.1 5 Sudoeste 15 Sudoeste 0 -- -- 77
2020-03-09 20:00:00 10.1 11 Oeste 19 Oeste 0 -- -- 66
2020-03-09 19:00:00 13.1 3 Sudeste 33 Nordeste 0 -- -- 31
2020-03-09 18:00:00 14.3 16 Nordeste 30 Este 0 -- -- 28
2020-03-09 17:00:00 15.3 16 Nordeste 39 Este 0 -- -- 26
2020-03-09 16:00:00 15.7 12 Nordeste 38 Este 0 -- -- 26
2020-03-09 15:00:00 16.1 8 Este 23 Nordeste 0 -- -- 26
2020-03-09 14:00:00 16.2 9 Sudoeste 15 Sudoeste 0 -- -- 38
2020-03-09 13:00:00 13.4 7 Sudoeste 17 Sur 0 -- -- 54
2020-03-09 12:00:00 12.6 8 Sudoeste 18 Oeste 0 -- -- 63
2020-03-09 11:00:00 10.4 6 Oeste 14 Sudoeste 0 -- -- 72
2020-03-09 10:00:00 9.6 6 Sudoeste 11 Sudoeste 0 -- -- 74
2020-03-09 09:00:00 7.5 5 Sudoeste 13 Este 0 -- -- 84
2020-03-09 08:00:00 4 6 Este 10 Este 0 -- -- 90
2020-03-09 07:00:00 4.5 3 Nordeste 9 Sudeste 0 -- -- 87
2020-03-09 06:00:00 5.4 4 Nordeste 10 Nordeste 0 -- -- 86
2020-03-09 05:00:00 6.2 5 Nordeste 12 Norte 0 -- -- 82
2020-03-09 04:00:00 5.7 5 Nordeste 13 Nordeste 0 -- -- 84
2020-03-09 03:00:00 5.5 8 Este 14 Nordeste 0 -- -- 84
2020-03-09 02:00:00 6.2 6 Este 18 Nordeste 0 -- -- 81
2020-03-09 01:00:00 6.1 7 Este 12 Este 0 -- -- 83
2020-03-09 00:00:00 6.7 6 Este 11 Este 0 -- -- 82
2020-03-08 23:00:00 7.6 5 Este 11 Nordeste 0 -- -- 79
2020-03-08 22:00:00 8.7 5 Este 10 Nordeste 0 -- -- 76
2020-03-08 21:00:00 9.5 5 Este 9 Este 0 -- -- 74
2020-03-08 20:00:00 10.7 2 Este 6 Este 0 -- -- 69
2020-03-08 19:00:00 11.4 2 Este 10 Sudeste 0 -- -- 66
2020-03-08 18:00:00 12.4 6 Sudoeste 18 Sudoeste 0 -- -- 64
2020-03-08 17:00:00 13.8 14 Sudoeste 22 Sudoeste 0 -- -- 58
2020-03-08 16:00:00 15 9 Sudoeste 19 Sudoeste 0 -- -- 51
2020-03-08 15:00:00 15.4 13 Sudoeste 21 Oeste 0 -- -- 49
2020-03-08 14:00:00 14.9 9 Sudoeste 22 Sudoeste 0 -- -- 49
2020-03-08 13:00:00 13.5 9 Sudoeste 18 Sudoeste 0 -- -- 55
2020-03-08 12:00:00 12.3 7 Sudoeste 13 Sudoeste 0 -- -- 58
2020-03-08 11:00:00 10.5 7 Sudoeste 13 Oeste 0 -- -- 65
2020-03-08 10:00:00 9.1 4 Sudoeste 9 Sudoeste 0 -- -- 69
2020-03-08 09:00:00 4.9 4 Este 9 Este 0 -- -- 73
2020-03-08 08:00:00 2.2 6 Este 10 Este 0 -- -- 78
2020-03-08 07:00:00 3.2 6 Nordeste 14 Este 0 -- -- 75
2020-03-08 06:00:00 2.6 8 Este 13 Este 0 -- -- 80
2020-03-08 05:00:00 3.4 5 Este 9 Este 0 -- -- 78
2020-03-08 04:00:00 4.2 5 Este 8 Nordeste 0 -- -- 75
2020-03-08 03:00:00 4.4 4 Este 9 Este 0 -- -- 73
2020-03-08 02:00:00 4.6 5 Este 9 Este 0 -- -- 72
2020-03-08 01:00:00 5.7 3 Sur 10 Este 0 -- -- 67
2020-03-08 00:00:00 6.5 0 Calma 8 Sudoeste 0 -- -- 61
2020-03-07 23:00:00 7.4 3 Oeste 8 Nordeste 0 -- -- 55
2020-03-07 22:00:00 8.1 4 Este 10 Sudoeste 0 -- -- 54
2020-03-07 21:00:00 9 2 Sudoeste 10 Sudoeste 0 -- -- 46
2020-03-07 20:00:00 10.6 5 Este 17 Nordeste 0 -- -- 39
2020-03-07 19:00:00 12.3 10 Nordeste 26 Este 0 -- -- 32
2020-03-07 18:00:00 13.4 8 Norte 30 Nordeste 0 -- -- 26
2020-03-07 17:00:00 13.7 9 Este 30 Este 0 -- -- 22
2020-03-07 16:00:00 14.4 9 Nordeste 21 Noroeste 0 -- -- 22
2020-03-07 15:00:00 14.1 7 Noroeste 20 Oeste 0 -- -- 32
2020-03-07 14:00:00 13.2 12 Oeste 22 Sudoeste 0 -- -- 37
2020-03-07 13:00:00 12.3 10 Sudoeste 26 Oeste 0 -- -- 38
2020-03-07 12:00:00 11.4 13 Oeste 22 Oeste 0 -- -- 36
2020-03-07 11:00:00 10.4 13 Sudoeste 23 Sudoeste 0 -- -- 39
2020-03-07 10:00:00 8.9 12 Oeste 19 Sudoeste 0 -- -- 41
2020-03-07 09:00:00 7.3 6 Sur 40 Sudoeste 0 -- -- 39
2020-03-07 08:00:00 5.1 21 Oeste 42 Sudoeste 0 -- -- 44
2020-03-07 07:00:00 6.5 19 Nordeste 59 Nordeste 0 -- -- 35
2020-03-07 06:00:00 5.9 21 Nordeste 59 Nordeste 0 -- -- 42
2020-03-07 05:00:00 6.5 27 Norte 58 Nordeste 0 -- -- 41
2020-03-07 04:00:00 6.4 21 Nordeste 62 Nordeste 0 -- -- 41
2020-03-07 03:00:00 7.1 30 Nordeste 87 Nordeste 0 -- -- 34
2020-03-07 02:00:00 6.7 38 Nordeste 76 Este 0 -- -- 34
2020-03-07 01:00:00 6.2 13 Este 45 Nordeste 0 -- -- 42
2020-03-07 00:00:00 4.6 13 Nordeste 32 Nordeste 0 -- -- 53
2020-03-06 23:00:00 3.9 10 Oeste 28 Nordeste 0 -- -- 55
2020-03-06 22:00:00 5.5 6 Este 38 Este 0 -- -- 45
2020-03-06 21:00:00 6.7 11 Nordeste 31 Nordeste 0 -- -- 34
2020-03-06 20:00:00 7.1 9 Nordeste 30 Nordeste 0 -- -- 38
2020-03-06 19:00:00 7.9 10 Noroeste 36 Este 0 -- -- 34
2020-03-06 18:00:00 9.8 10 Nordeste 42 Nordeste 0 -- -- 27
2020-03-06 17:00:00 11 12 Nordeste 39 Este 0 -- -- 28
2020-03-06 16:00:00 11.4 11 Nordeste 39 Este 0 -- -- 30
2020-03-06 15:00:00 10.6 9 Este 32 Este 0 -- -- 43
2020-03-06 14:00:00 9.7 5 Nordeste 11 Nordeste 0 -- -- 57
2020-03-06 13:00:00 9.5 5 Sudeste 14 Sudoeste 0 -- -- 56
2020-03-06 12:00:00 9.3 6 Sudoeste 14 Sudoeste 0 -- -- 58
2020-03-06 11:00:00 7.3 4 Sudoeste 13 Sudoeste 0 -- -- 69
2020-03-06 10:00:00 5.8 5 Sudoeste 12 Sudoeste 0 -- -- 73
2020-03-06 09:00:00 2.7 2 Norte 10 Nordeste 0 -- -- 78
2020-03-06 08:00:00 -0.4 6 Este 12 Este 0 -- -- 83
2020-03-06 07:00:00 -0.4 5 Este 12 Nordeste 0 -- -- 82
2020-03-06 06:00:00 0.3 5 Este 9 Este 0 -- -- 79
2020-03-06 05:00:00 1.3 3 Este 12 Nordeste 0 -- -- 74
2020-03-06 04:00:00 1.6 6 Este 9 Este 0 -- -- 75
2020-03-06 03:00:00 2.3 4 Nordeste 12 Este 0 -- -- 73
2020-03-06 02:00:00 3.3 7 Este 12 Este 0 -- -- 71
2020-03-06 01:00:00 4.1 7 Este 10 Este 0 -- -- 74
2020-03-06 00:00:00 5.6 3 Este 16 Este 0 -- -- 65
2020-03-05 23:00:00 6.7 6 Este 15 Este 0 -- -- 69
2020-03-05 22:00:00 7.7 4 Este 9 Oeste 0 -- -- 67
2020-03-05 21:00:00 8.7 4 Este 12 Nordeste 0 -- -- 62
2020-03-05 20:00:00 9.3 5 Este 14 Sur 0 -- -- 61
2020-03-05 19:00:00 11.1 9 Oeste 27 Noroeste 0 -- -- 51
2020-03-05 18:00:00 13 6 Norte 33 Oeste 0 -- -- 48
2020-03-05 17:00:00 13.1 17 Sudoeste 35 Sudoeste 0 -- -- 77
2020-03-05 16:00:00 13.3 16 Sudoeste 59 Oeste 0 -- -- 76
2020-03-05 15:00:00 14.3 22 Oeste 54 Oeste 0 -- -- 63
2020-03-05 14:00:00 15 22 Oeste 57 Oeste 0 -- -- 63
2020-03-05 13:00:00 16.9 36 Oeste 53 Oeste 0 -- -- 56
2020-03-05 12:00:00 15.5 26 Sudoeste 48 Sudoeste 0 -- -- 66
2020-03-05 11:00:00 12.7 5 Sudoeste 10 Sudoeste 0 -- -- 79
2020-03-05 10:00:00 9.4 4 Este 10 Este 0 -- -- 88
2020-03-05 09:00:00 7.9 3 Este 6 Este 0 -- -- 94
2020-03-05 08:00:00 6.6 4 Nordeste 9 Este 0 -- -- 93
2020-03-05 07:00:00 6.2 5 Este 8 Este 0 -- -- 91
2020-03-05 06:00:00 6.2 5 Este 8 Este 0 -- -- 90
2020-03-05 05:00:00 6.6 3 Este 12 Este 0 -- -- 90
2020-03-05 04:00:00 6.8 5 Este 10 Nordeste 0 -- -- 89
2020-03-05 03:00:00 7.1 5 Este 10 Este 0 -- -- 87
2020-03-05 02:00:00 7.8 7 Este 13 Este 0 -- -- 86
2020-03-05 01:00:00 7.8 7 Este 11 Este 0 -- -- 85
2020-03-05 00:00:00 8.6 4 Este 10 Este 0 -- -- 83
2020-03-04 23:00:00 8.9 5 Este 10 Este 0 -- -- 82
2020-03-04 22:00:00 9.8 5 Este 9 Este 0 -- -- 81
2020-03-04 21:00:00 10.5 4 Este 9 Este 0 -- -- 80
2020-03-04 20:00:00 12.4 4 Oeste 11 Sur 0 -- -- 75
2020-03-04 19:00:00 13.5 6 Este 12 Este 0 -- -- 67
2020-03-04 18:00:00 15.2 5 Nordeste 10 Norte 0 -- -- 62
2020-03-04 17:00:00 15.6 2 Nordeste 10 Sudoeste 0 -- -- 61
2020-03-04 16:00:00 15.1 3 Oeste 9 Sudoeste 0 -- -- 58
2020-03-04 15:00:00 14.3 6 Oeste 13 Oeste 0 -- -- 58
2020-03-04 14:00:00 13.5 4 Sudoeste 20 Sudoeste 0 -- -- 55
2020-03-04 13:00:00 12.8 6 Sudoeste 14 Sudoeste 0 -- -- 50
2020-03-04 12:00:00 11.2 4 Sur 13 Sudoeste 0 -- -- 51
2020-03-04 11:00:00 9.5 8 Sudoeste 13 Sudoeste 0 -- -- 55
2020-03-04 10:00:00 7.4 3 Sudeste 8 Este 0 -- -- 58
2020-03-04 09:00:00 3.5 6 Este 10 Este 0 -- -- 73
2020-03-04 08:00:00 2.4 7 Este 10 Este 0 -- -- 74
2020-03-04 07:00:00 3.2 5 Este 12 Este 0 -- -- 68
2020-03-04 06:00:00 3.9 5 Este 13 Este 0 -- -- 66
2020-03-04 05:00:00 4 3 Nordeste 10 Este 0 -- -- 61
2020-03-04 04:00:00 4.8 3 Nordeste 8 Este 0 -- -- 60
2020-03-04 03:00:00 5.3 3 Noroeste 12 Sudoeste 0 -- -- 59
2020-03-04 02:00:00 7.8 3 Sudoeste 14 Este 0 -- -- 51
2020-03-04 01:00:00 9.1 6 Norte 36 Nordeste 0 -- -- 43
2020-03-04 00:00:00 8.5 15 Nordeste 28 Este 0 -- -- 51
2020-03-03 23:00:00 9 11 Nordeste 28 Este 0 -- -- 53
2020-03-03 22:00:00 9.8 15 Nordeste 26 Este 0 -- -- 51
2020-03-03 21:00:00 9.3 4 Este 16 Este 0 -- -- 57
2020-03-03 20:00:00 10.8 7 Norte 44 Oeste 0 -- -- 51
2020-03-03 19:00:00 9.5 17 Oeste 44 Oeste 0 -- -- 60
2020-03-03 18:00:00 9.9 28 Oeste 40 Oeste 0 -- -- 61
2020-03-03 17:00:00 10.7 20 Noroeste 42 Oeste 0 -- -- 59
2020-03-03 16:00:00 10.5 21 Oeste 50 Oeste 0 -- -- 61
2020-03-03 15:00:00 11.6 25 Oeste 61 Oeste 0 -- -- 53
2020-03-03 14:00:00 10.6 27 Oeste 56 Oeste 0 -- -- 55
2020-03-03 13:00:00 8.8 6 Nordeste 13 Oeste 0 -- -- 61
2020-03-03 12:00:00 5.2 5 Este 12 Este 0 -- -- 66
2020-03-03 11:00:00 4.1 7 Oeste 12 Oeste 0 -- -- 73
2020-03-03 10:00:00 2.7 3 Este 7 Este 0 -- -- 72
2020-03-03 09:00:00 1.3 2 Este 13 Noroeste 0 -- -- 78
2020-03-03 08:00:00 0.4 4 Este 8 Este 0 -- -- 79
2020-03-03 07:00:00 -0.3 4 Nordeste 13 Este 0 -- -- 83
2020-03-03 06:00:00 -0.5 6 Este 12 Este 0 -- -- 83
2020-03-03 05:00:00 0.2 6 Este 9 Nordeste 0 -- -- 81
2020-03-03 04:00:00 0.5 4 Este 10 Sudeste 0 -- -- 78
2020-03-03 03:00:00 1.1 4 Oeste 12 Noroeste 0 -- -- 73
2020-03-03 02:00:00 2 3 Oeste 12 Este 0 -- -- 67
2020-03-03 01:00:00 3.4 6 Nordeste 13 Norte 0 -- -- 60
2020-03-03 00:00:00 3.6 6 Este 13 Este 0 -- -- 59